• Join FlightAware (Why Join?)
  • Login
  • US Flag 
02:21PM EDT


 

Airport Tracker/Info


-or-


 

Live Flight TrackerFlight Track Log ✈ N314K ✈ 27-May-2013 ✈ KHPN

Flight Track Log - Related Links

Times and Time Zones

All times are in EDT time to prevent confusion due to time zone crossing. See the N314K flight status page for this flight to view local times or setup timezone preferences in your user account.

Time Position Orientation Groundspeed Altitude Reporting Facility
EDT Latitude Longitude Course Direction KTS MPH feet Rate Location/Type
07:51PM 41.2411 -72.1336 129° Southeast 161 185 4,500  Level Boston Center
07:52PM 41.2331 -72.1944 260° West 162 186 4,500  Level Boston Center
07:53PM 41.2269 -72.2553 262° West 163 188 4,500  Level Boston Center
07:54PM 41.2167 -72.3500 262° West 163 188 4,500  Level New York TRACON
07:55PM 41.2167 -72.4167 270° West 168 193 4,500  Level New York TRACON
07:56PM -19.8813 -160.1580 129° Southeast  Level Estimated
07:56PM 41.2167 -72.4500 270° West 165 190 4,500  Level New York TRACON
07:57PM 41.2000 -72.5167 252° West 162 186 4,500  Level New York TRACON
07:58PM 41.2000 -72.5833 270° West 163 188 4,500  Level New York TRACON
07:59PM 41.1833 -72.6333 246° West 165 190 4,500  Level New York TRACON
08:00PM 41.1833 -72.7000 270° West 167 192 4,500  Level New York TRACON
08:01PM 41.1833 -72.7500 270° West 164 189 4,500  Level New York TRACON
08:02PM 41.1667 -72.8167 252° West 165 190 4,500  Level New York TRACON
08:03PM 41.1667 -72.8833 270° West 164 189 4,500  Level New York TRACON
08:04PM 41.1667 -72.9333 270° West 167 192 4,500  Level New York TRACON
08:05PM 41.1500 -73.0000 252° West 162 186 4,500  Level New York TRACON
08:06PM 41.1500 -73.0667 270° West 165 190 4,500 -120 Level New York TRACON
08:07PM 41.1333 -73.1167 246° West 167 192 4,300 -300 Descending New York TRACON
08:08PM 41.1333 -73.1833 270° West 174 200 3,900 -300 Descending New York TRACON
08:09PM 41.1167 -73.2333 246° West 172 198 3,700 -300 Descending New York TRACON
08:10PM 41.1167 -73.3000 270° West 175 201 3,300 -480 Descending New York TRACON
08:11PM 41.1000 -73.3667 252° West 183 211 2,800 -540 Descending New York TRACON
08:12PM 41.1000 -73.4333 270° West 181 208 2,300 -600 Descending New York TRACON
08:13PM 41.0833 -73.5167 255° West 182 209 1,600 -420 Descending New York TRACON
08:14PM 41.0667 -73.5667 246° West 170 196 1,500 -120 Descending New York TRACON